Flight Track Log - Related Links

Times and Time Zones

All times are in EDT time to prevent confusion due to time zone crossing. See the SKW5516 flight status page for this flight to view local times or setup timezone preferences in your user account.

Time Position Orientation Groundspeed Altitude Reporting Facility
EDT Latitude Longitude Course Direction KTS MPH feet Rate Location/Type
Sun 01:51:00 PM 37.5167 -122.0389 111° Southeast  Level Estimated
Sun 01:52:00 PM 37.4910 -121.9550 111° Southeast  Level Estimated
Sun 01:53:00 PM 37.4652 -121.8711 111° Southeast  Level Estimated
Sun 01:54:00 PM 37.4393 -121.7873 111° Southeast  Level Estimated
Sun 01:55:00 PM 37.4134 -121.7036 111° Southeast  Level Estimated
Sun 01:56:00 PM 37.3874 -121.6199 111° Southeast  Level Estimated
Sun 01:57:00 PM 37.3614 -121.5362 111° Southeast  Level Estimated
Sun 01:58:00 PM 37.3353 -121.4527 111° Southeast  Level Estimated
Sun 01:59:00 PM 37.3091 -121.3691 111° Southeast  Level Estimated
Sun 02:00:00 PM 37.2829 -121.2857 112° Southeast  Level Estimated
Sun 02:01:00 PM 37.2567 -121.2023 112° Southeast  Level Estimated
Sun 02:02:00 PM 37.2303 -121.1189 112° Southeast  Level Estimated
Sun 02:03:00 PM 37.2039 -121.0356 112° Southeast  Level Estimated
Sun 02:04:00 PM 37.1775 -120.9524 112° Southeast  Level Estimated
Sun 02:05:00 PM 37.1510 -120.8692 112° Southeast  Level Estimated
Sun 02:06:00 PM 37.1244 -120.7861 112° Southeast  Level Estimated
Sun 02:07:00 PM 37.0978 -120.7030 112° Southeast  Level Estimated
Sun 02:08:00 PM 37.0711 -120.6200 112° Southeast  Level Estimated
Sun 02:09:00 PM 37.0444 -120.5371 112° Southeast  Level Estimated
Sun 02:10:00 PM 37.0176 -120.4542 112° Southeast  Level Estimated
Sun 02:11:00 PM 36.9907 -120.3714 112° Southeast  Level Estimated
Sun 02:12:00 PM 36.9638 -120.2886 112° Southeast  Level Estimated
Sun 02:13:00 PM 36.9369 -120.2059 112° Southeast  Level Estimated
Sun 02:14:00 PM 36.9098 -120.1233 112° Southeast  Level Estimated
Sun 02:15:00 PM 36.8828 -120.0407 112° Southeast  Level Estimated
Sun 02:16:00 PM 36.8556 -119.9582 112° Southeast  Level Estimated
Sun 02:17:00 PM 36.8284 -119.8757 112° Southeast  Level Estimated
Sun 02:18:00 PM 36.8012 -119.7933 112° Southeast  Level Estimated
Sun 02:19:00 PM 36.7764 -119.7187 112° Southeast  Level Estimated
Sun 02:20:00 PM 36.7764 -119.7187 148° Southeast  Level Estimated
Sun 02:21:00 PM 36.7764 -119.7187 148° Southeast  Level Estimated
Sun 02:22:00 PM 36.7764 -119.7187 148° Southeast  Level Estimated
Sun 02:23:00 PM 36.7764 -119.7187 148° Southeast  Level Estimated
Sun 02:24:00 PM 36.7764 -119.7187 148° Southeast  Level Estimated
Sun 02:25:00 PM 36.7764 -119.7187 148° Southeast  Level Estimated
Sun 02:26:00 PM 36.7764 -119.7187 148° Southeast  Level Estimated

Login

Don't have an account? Register now (free) for customized features, flight alerts, and more!